Time;durP1;ratioP1;P1;durP2;ratioP2;P2;SDS_P1;SDS_P2;PMS_P1;PMS_P2;Temp;Humidity;BMP_temperature;BMP_pressure;BME280_temperature;BME280_humidity;BME280_pressure;Samples;Min_cycle;Max_cycle;Signal;HPM_P1;HPM_P2
2022/11/29 00:01:03;;;;;;;4.85;3.05;;;;;;;16.78;36.40;102409.34;4996432;28;20088;-94
2022/11/29 00:03:29;;;;;;;4.50;3.15;;;;;;;16.77;36.28;102409.53;5013304;28;20481;-95
2022/11/29 00:05:55;;;;;;;4.70;3.20;;;;;;;16.75;36.31;102403.44;4990228;28;20484;-95
2022/11/29 00:08:21;;;;;;;4.72;3.58;;;;;;;16.77;36.32;102413.06;5009292;28;20060;-94
2022/11/29 00:10:47;;;;;;;5.15;3.40;;;;;;;16.78;36.35;102400.38;4993228;28;25831;-94
2022/11/29 00:13:12;;;;;;;5.03;3.53;;;;;;;16.79;36.24;102407.47;5000034;28;20048;-95
2022/11/29 00:15:38;;;;;;;4.40;3.22;;;;;;;16.79;36.37;102410.19;5001616;28;20032;-95
2022/11/29 00:18:07;;;;;;;5.03;3.05;;;;;;;16.75;36.30;102401.59;4997865;28;20021;-94
2022/11/29 00:20:33;;;;;;;4.43;3.00;;;;;;;16.75;36.37;102406.13;4997462;28;20029;-96
2022/11/29 00:22:59;;;;;;;4.75;3.35;;;;;;;16.80;36.37;102409.13;5005913;28;20389;-94
2022/11/29 00:25:25;;;;;;;4.05;3.03;;;;;;;16.78;36.35;102405.78;5013223;28;20029;-95
2022/11/29 00:27:51;;;;;;;4.38;3.50;;;;;;;16.78;36.19;102406.66;4998407;28;20116;-95
2022/11/29 00:30:17;;;;;;;5.38;3.47;;;;;;;16.78;36.31;102400.38;4998573;28;20027;-95
2022/11/29 00:32:43;;;;;;;5.53;3.40;;;;;;;16.78;36.31;102398.53;5001494;28;20034;-95
2022/11/29 00:35:08;;;;;;;5.07;3.67;;;;;;;16.79;36.29;102404.78;4998193;28;20183;-94
2022/11/29 00:37:34;;;;;;;4.82;3.58;;;;;;;16.76;36.26;102397.84;5004282;28;20301;-95
2022/11/29 00:40:00;;;;;;;6.55;4.07;;;;;;;16.77;36.33;102388.75;5002462;28;20028;-94
2022/11/29 00:42:25;;;;;;;5.60;3.45;;;;;;;16.76;35.95;102397.03;5013795;28;21043;-94
2022/11/29 00:44:51;;;;;;;5.75;3.85;;;;;;;16.79;36.30;102391.28;5017342;28;20119;-95
2022/11/29 00:47:17;;;;;;;6.70;4.18;;;;;;;16.79;36.24;102391.28;5009696;28;20029;-95
2022/11/29 00:49:42;;;;;;;5.25;3.50;;;;;;;16.76;36.14;102391.63;4996038;28;20030;-95
2022/11/29 00:52:08;;;;;;;6.07;3.88;;;;;;;16.80;36.35;102387.53;5013524;28;20022;-94
2022/11/29 00:54:34;;;;;;;5.72;3.95;;;;;;;16.77;36.42;102382.53;4998452;28;20116;-94
2022/11/29 00:56:59;;;;;;;5.55;3.55;;;;;;;16.79;36.43;102397.50;5000047;28;20095;-94
2022/11/29 00:59:29;;;;;;;7.28;3.75;;;;;;;16.80;36.43;102387.53;5007961;28;20041;-94
2022/11/29 01:01:55;;;;;;;6.60;3.90;;;;;;;16.78;36.25;102387.75;5001807;28;20037;-95
2022/11/29 01:04:23;;;;;;;5.35;3.63;;;;;;;16.77;36.23;102382.53;4999933;28;20395;-94
2022/11/29 01:06:52;;;;;;;5.50;3.83;;;;;;;16.73;36.27;102373.94;5012583;28;20479;-95
2022/11/29 01:09:18;;;;;;;8.10;4.10;;;;;;;16.79;36.24;102394.81;4991963;28;20048;-95
2022/11/29 01:11:43;;;;;;;5.53;3.85;;;;;;;16.79;36.29;102391.28;4998645;28;20459;-95
2022/11/29 01:14:10;;;;;;;6.10;3.78;;;;;;;16.76;36.28;102378.13;4997219;28;20025;-95
2022/11/29 01:16:35;;;;;;;5.57;3.78;;;;;;;16.79;36.49;102397.50;5016259;28;20036;-94
2022/11/29 01:19:01;;;;;;;6.95;4.50;;;;;;;16.80;36.26;102392.94;5011307;28;20036;-94
2022/11/29 01:21:27;;;;;;;6.57;3.97;;;;;;;16.78;36.12;102386.88;5008667;28;20369;-95
2022/11/29 01:23:53;;;;;;;7.32;4.13;;;;;;;16.78;36.37;102385.03;4999681;28;20030;-95
2022/11/29 01:26:20;;;;;;;5.50;3.63;;;;;;;16.81;36.50;102389.22;4995019;28;20090;-95
2022/11/29 01:28:47;;;;;;;6.35;4.35;;;;;;;16.80;36.25;102382.13;5017132;28;20480;-94
2022/11/29 01:31:14;;;;;;;5.47;4.05;;;;;;;16.74;36.30;102372.06;4999484;28;20067;-96
2022/11/29 01:33:40;;;;;;;6.63;3.70;;;;;;;16.79;36.35;102383.16;4993343;28;20017;-94
2022/11/29 01:36:09;;;;;;;6.50;4.00;;;;;;;16.75;36.24;102373.72;5011003;28;20049;-94
2022/11/29 01:38:35;;;;;;;7.85;4.28;;;;;;;16.77;36.24;102377.94;5003791;28;20056;-94
2022/11/29 01:41:09;;;;;;;8.07;4.35;;;;;;;16.77;36.24;102377.13;4998627;28;20048;-95
2022/11/29 01:44:02;;;;;;;6.20;3.72;;;;;;;16.77;36.36;102377.13;4993617;28;20028;-95
2022/11/29 01:46:35;;;;;;;5.05;3.28;;;;;;;16.80;36.30;102387.53;5009358;28;20072;-94
2022/11/29 01:49:16;;;;;;;6.17;3.93;;;;;;;16.79;36.36;102384.00;4989029;28;20740;-95
2022/11/29 01:51:53;;;;;;;6.38;4.38;;;;;;;16.77;36.33;102382.53;4998612;28;20040;-95
2022/11/29 01:54:18;;;;;;;6.53;4.28;;;;;;;16.76;36.29;102388.94;5004154;28;20052;-94
2022/11/29 01:56:44;;;;;;;6.43;4.18;;;;;;;16.78;36.38;102386.88;5001364;28;20037;-94
2022/11/29 01:59:11;;;;;;;6.97;4.30;;;;;;;16.76;36.36;102381.66;4990513;28;20033;-94
2022/11/29 02:01:37;;;;;;;5.97;4.20;;;;;;;16.79;36.41;102385.88;5017396;28;20087;-95
2022/11/29 02:04:03;;;;;;;6.75;4.10;;;;;;;16.77;36.42;102387.91;5000964;28;20037;-94
2022/11/29 02:06:29;;;;;;;6.75;4.35;;;;;;;16.77;36.31;102382.53;4994523;28;20029;-95
2022/11/29 02:08:54;;;;;;;6.70;4.50;;;;;;;16.77;36.48;102382.53;4996516;28;20033;-94
2022/11/29 02:11:40;;;;;;;6.82;4.32;;;;;;;16.80;36.38;102382.13;5020122;28;20021;-95
2022/11/29 02:14:23;;;;;;;5.97;4.28;;;;;;;16.79;36.39;102392.09;5009976;28;20387;-96
2022/11/29 02:17:07;;;;;;;5.47;3.67;;;;;;;16.79;36.41;102383.16;5008731;28;20102;-94
2022/11/29 02:19:55;;;;;;;6.20;4.30;;;;;;;16.77;36.42;102393.31;5027206;28;20754;-95
2022/11/29 02:23:00;;;;;;;5.43;3.80;;;;;;;16.80;36.29;102392.94;5003769;28;20614;-94
2022/11/29 02:25:35;;;;;;;5.75;3.75;;;;;;;16.77;36.42;102390.63;4981436;28;20153;-95
2022/11/29 02:28:19;;;;;;;6.20;4.30;;;;;;;16.79;36.46;102391.28;5022136;28;20048;-94
2022/11/29 02:31:00;;;;;;;8.60;4.32;;;;;;;16.79;36.44;102396.69;5033703;28;20054;-94
2022/11/29 02:33:44;;;;;;;6.18;3.75;;;;;;;16.79;36.28;102396.69;5029415;28;20400;-95
2022/11/29 02:36:56;;;;;;;5.22;3.90;;;;;;;16.79;36.24;102392.09;5026414;28;20103;-95
2022/11/29 02:39:40;;;;;;;5.20;3.75;;;;;;;16.78;36.47;102392.28;5003942;28;20128;-94
2022/11/29 02:42:47;;;;;;;5.55;3.92;;;;;;;16.77;36.52;102396.03;5032237;28;20025;-94
2022/11/29 02:45:24;;;;;;;6.78;4.45;;;;;;;16.79;36.52;102396.69;5012481;28;20033;-95
2022/11/29 02:48:08;;;;;;;5.38;3.97;;;;;;;16.78;36.38;102394.97;5014386;28;20518;-95
2022/11/29 02:50:35;;;;;;;5.82;4.65;;;;;;;16.76;36.48;102392.47;5032369;28;20041;-94
2022/11/29 02:53:39;;;;;;;7.15;4.53;;;;;;;16.79;36.41;102392.09;5012288;28;20500;-94
2022/11/29 02:56:16;;;;;;;5.70;3.70;;;;;;;16.78;36.50;102392.28;5026880;28;20096;-95
2022/11/29 02:59:09;;;;;;;5.03;4.15;;;;;;;16.78;36.48;102397.69;4995794;28;20033;-95
2022/11/29 03:01:47;;;;;;;5.60;4.00;;;;;;;16.79;36.51;102399.38;4991479;28;20369;-95
2022/11/29 03:04:37;;;;;;;6.70;4.25;;;;;;;16.80;36.43;102398.34;5026272;28;20123;-95
2022/11/29 03:07:11;;;;;;;6.05;4.00;;;;;;;16.78;36.39;102401.25;5033310;28;20040;-95
2022/11/29 03:10:07;;;;;;;6.70;4.60;;;;;;;16.77;36.31;102404.13;5026902;28;20422;-94
2022/11/29 03:12:39;;;;;;;6.20;4.10;;;;;;;16.76;36.43;102402.44;5006504;28;20040;-94
2022/11/29 03:15:27;;;;;;;6.93;4.47;;;;;;;16.79;36.49;102404.78;4993119;28;20013;-95
2022/11/29 03:18:26;;;;;;;5.15;3.90;;;;;;;16.78;36.53;102400.38;5009623;28;20491;-94
2022/11/29 03:21:28;;;;;;;5.70;4.05;;;;;;;16.77;36.47;102399.56;5013531;28;20366;-95
2022/11/29 03:23:56;;;;;;;6.00;4.10;;;;;;;16.76;36.49;102391.63;5025574;28;20033;-95
2022/11/29 03:26:41;;;;;;;6.13;4.20;;;;;;;16.78;36.57;102400.38;4996111;28;20037;-94
2022/11/29 03:29:19;;;;;;;6.18;4.30;;;;;;;16.77;36.48;102399.56;5010266;28;20032;-95
2022/11/29 03:32:10;;;;;;;6.07;4.30;;;;;;;16.78;36.57;102405.78;5026859;28;20299;-96
2022/11/29 03:34:50;;;;;;;5.53;4.05;;;;;;;16.77;36.40;102398.72;4993708;28;20140;-94
2022/11/29 03:37:34;;;;;;;5.85;4.15;;;;;;;16.73;36.70;102397.38;4988626;28;20474;-94
2022/11/29 03:40:14;;;;;;;6.83;4.60;;;;;;;16.76;36.55;102403.25;4965628;28;20060;-94
2022/11/29 03:42:59;;;;;;;5.85;4.13;;;;;;;16.75;36.42;102400.72;4991382;28;20024;-94
2022/11/29 03:45:48;;;;;;;6.13;3.83;;;;;;;16.76;36.51;102402.44;4981461;28;21902;-95
2022/11/29 03:48:19;;;;;;;5.55;3.88;;;;;;;16.75;36.63;102408.84;4977731;28;20036;-95
2022/11/29 03:50:50;;;;;;;4.78;3.97;;;;;;;16.75;36.52;102411.53;4977106;28;20045;-95
2022/11/29 03:53:39;;;;;;;7.53;4.70;;;;;;;16.76;36.55;102408.66;4956168;28;20562;-95
2022/11/29 03:56:30;;;;;;;7.65;4.25;;;;;;;16.78;36.48;102411.19;4992812;28;20065;-94
2022/11/29 03:59:26;;;;;;;6.35;4.32;;;;;;;16.77;36.59;102410.34;5007670;28;20033;-95
2022/11/29 04:02:17;;;;;;;6.32;4.10;;;;;;;16.76;36.69;102413.22;4993464;28;20052;-94
2022/11/29 04:05:08;;;;;;;5.78;3.78;;;;;;;16.77;36.48;102412.22;5011950;28;20029;-95
2022/11/29 04:08:00;;;;;;;6.55;4.18;;;;;;;16.77;36.32;102414.91;4987685;28;20045;-94
2022/11/29 04:10:50;;;;;;;6.53;4.38;;;;;;;16.78;36.54;102405.78;4976873;28;20353;-94
2022/11/29 04:13:34;;;;;;;6.15;4.50;;;;;;;16.77;36.65;102414.91;4995907;28;20040;-94
2022/11/29 04:16:24;;;;;;;6.15;4.30;;;;;;;16.77;36.57;102413.06;4968519;28;20085;-96
2022/11/29 04:19:14;;;;;;;5.60;4.00;;;;;;;16.75;36.63;102404.28;5008025;28;20029;-95
2022/11/29 04:21:50;;;;;;;6.93;3.97;;;;;;;16.75;36.44;102404.28;4993216;28;20034;-95
2022/11/29 04:24:44;;;;;;;6.43;4.18;;;;;;;16.77;36.47;102404.13;4965373;28;20106;-95
2022/11/29 04:27:34;;;;;;;6.03;4.00;;;;;;;16.70;36.64;102401.28;4973995;28;20029;-95
2022/11/29 04:30:32;;;;;;;6.05;4.22;;;;;;;16.75;36.69;102404.28;4960312;28;20477;-96
2022/11/29 04:33:12;;;;;;;6.15;4.22;;;;;;;16.76;36.61;102402.44;4950202;28;20030;-95
2022/11/29 04:35:56;;;;;;;6.03;4.55;;;;;;;16.75;36.66;102400.72;5002951;28;20052;-95
2022/11/29 04:38:44;;;;;;;5.70;3.92;;;;;;;16.74;36.52;102399.06;5019709;28;20719;-96
2022/11/29 04:41:27;;;;;;;5.97;4.30;;;;;;;16.75;36.49;102412.41;5010576;28;20071;-95
2022/11/29 04:44:41;;;;;;;6.00;4.45;;;;;;;16.75;36.61;102411.53;5023774;28;20068;-95
2022/11/29 04:47:29;;;;;;;5.53;3.75;;;;;;;16.75;36.68;102416.94;5011170;28;20535;-94
2022/11/29 04:50:12;;;;;;;6.60;4.63;;;;;;;16.75;36.57;102420.50;5016327;28;20026;-95
2022/11/29 04:53:08;;;;;;;6.18;4.32;;;;;;;16.75;36.56;102422.34;5005801;28;20035;-95
2022/11/29 04:56:01;;;;;;;6.20;4.30;;;;;;;16.76;36.67;102418.63;5016509;28;20395;-95
2022/11/29 04:58:30;;;;;;;5.43;4.18;;;;;;;16.74;36.64;102420.69;5022453;28;20034;-95
2022/11/29 05:01:17;;;;;;;6.03;4.40;;;;;;;16.75;36.53;102427.72;5030311;28;20075;-94
2022/11/29 05:04:01;;;;;;;6.50;4.55;;;;;;;16.75;36.57;102427.72;5011151;28;20176;-95
2022/11/29 05:07:02;;;;;;;7.45;4.30;;;;;;;16.76;36.58;102418.63;5023530;28;20106;-95
2022/11/29 05:09:35;;;;;;;5.45;3.97;;;;;;;16.76;36.70;102434.81;5014258;28;20072;-94
2022/11/29 05:12:28;;;;;;;8.98;4.40;;;;;;;16.75;36.57;102427.72;5014643;28;20510;-95
2022/11/29 05:15:31;;;;;;;6.75;4.43;;;;;;;16.73;36.61;102438.75;5027683;28;20033;-94
2022/11/29 05:18:20;;;;;;;6.55;4.40;;;;;;;16.70;36.51;102428.28;5020206;28;20037;-95
2022/11/29 05:21:03;;;;;;;6.07;3.97;;;;;;;16.75;36.67;102435.84;5009808;28;20060;-95
2022/11/29 05:23:43;;;;;;;5.13;4.30;;;;;;;16.73;36.57;102435.19;5030031;28;20323;-95
2022/11/29 05:26:31;;;;;;;5.85;4.20;;;;;;;16.75;36.68;102438.53;4995961;28;20166;-95
2022/11/29 05:29:30;;;;;;;5.07;3.97;;;;;;;16.71;36.74;102438.06;5025999;28;20037;-95
2022/11/29 05:32:22;;;;;;;6.88;4.03;;;;;;;16.75;36.74;102443.94;5003465;28;20028;-94
2022/11/29 05:35:06;;;;;;;6.13;4.35;;;;;;;16.76;36.75;102451.03;4993374;28;20638;-95
2022/11/29 05:37:43;;;;;;;6.22;4.03;;;;;;;16.74;36.64;102443.09;5028869;28;20037;-95
2022/11/29 05:40:12;;;;;;;6.05;4.07;;;;;;;16.74;36.57;102448.50;5014578;28;20033;-95
2022/11/29 05:43:00;;;;;;;6.00;4.43;;;;;;;16.72;36.68;102442.44;5033057;28;20032;-94
2022/11/29 05:45:35;;;;;;;6.25;4.28;;;;;;;16.74;36.57;102455.78;5028843;28;20029;-95
2022/11/29 05:48:06;;;;;;;5.70;4.25;;;;;;;16.75;36.66;102449.34;5000756;28;20021;-95
2022/11/29 05:50:58;;;;;;;6.13;4.25;;;;;;;16.74;36.61;102453.06;5021115;28;20029;-95
2022/11/29 05:53:44;;;;;;;5.53;4.53;;;;;;;16.73;36.72;102451.38;5011236;28;20032;-96
2022/11/29 05:56:17;;;;;;;6.45;4.63;;;;;;;16.69;36.58;102446.34;5001326;28;20060;-95
2022/11/29 05:58:49;;;;;;;7.00;4.50;;;;;;;16.75;36.53;102466.41;5010603;28;20112;-94
2022/11/29 06:01:26;;;;;;;6.72;4.20;;;;;;;16.74;36.65;102450.38;5028486;28;20538;-95
2022/11/29 06:03:55;;;;;;;5.72;4.18;;;;;;;16.75;36.68;102465.53;4994857;28;20028;-95
2022/11/29 06:06:58;;;;;;;5.20;3.88;;;;;;;16.71;36.72;102456.94;5032449;28;20025;-94
2022/11/29 06:09:48;;;;;;;6.50;4.10;;;;;;;16.75;36.77;102460.13;5030846;28;20190;-95
2022/11/29 06:12:22;;;;;;;6.50;4.00;;;;;;;16.70;36.81;102458.81;5021543;28;20407;-95
2022/11/29 06:15:10;;;;;;;6.17;4.43;;;;;;;16.68;36.72;102460.03;5022122;28;20510;-95
2022/11/29 06:17:47;;;;;;;4.75;3.83;;;;;;;16.73;36.78;102467.56;5037324;28;20779;-95
2022/11/29 06:20:29;;;;;;;6.38;4.30;;;;;;;16.74;36.86;102474.66;5031914;28;20036;-95
2022/11/29 06:23:05;;;;;;;7.43;3.85;;;;;;;16.70;36.73;102475.03;5014986;28;20060;-94
2022/11/29 06:25:55;;;;;;;6.35;4.18;;;;;;;16.74;36.72;102486.31;5013092;28;20025;-95
2022/11/29 06:28:27;;;;;;;6.35;4.05;;;;;;;16.70;36.82;102480.41;5025792;28;20033;-95
2022/11/29 06:31:22;;;;;;;6.20;4.22;;;;;;;16.76;36.74;102488.81;5030217;28;20113;-94
2022/11/29 06:34:01;;;;;;;;;;;;;;;16.74;36.70;102493.56;5027730;28;20041;-95
2022/11/29 06:36:34;;;;;;;5.28;3.70;;;;;;;16.71;36.76;102492.91;5026190;28;19921;-94
2022/11/29 06:38:59;;;;;;;5.40;4.10;;;;;;;16.69;36.86;102492.25;4997352;28;20108;-95
2022/11/29 06:41:28;;;;;;;4.90;4.05;;;;;;;16.71;36.72;102495.63;5008498;28;20119;-95
2022/11/29 06:43:54;;;;;;;5.38;3.83;;;;;;;16.74;36.53;102504.38;5004663;28;20365;-95
2022/11/29 06:46:44;;;;;;;5.90;4.32;;;;;;;16.73;36.77;102511.63;5026960;28;20044;-94
2022/11/29 06:49:19;;;;;;;6.10;4.10;;;;;;;16.70;36.65;102506.59;5014486;28;20421;-95
2022/11/29 06:52:16;;;;;;;5.32;3.95;;;;;;;16.73;36.86;102511.63;5033498;28;20029;-94
2022/11/29 06:55:00;;;;;;;4.75;3.50;;;;;;;16.76;36.85;102515.84;5028130;28;20068;-95
2022/11/29 06:57:39;;;;;;;4.28;3.25;;;;;;;16.74;36.98;102517.88;5032454;28;20645;-96
2022/11/29 07:00:15;;;;;;;5.80;4.32;;;;;;;16.73;36.69;102519.75;5011967;28;20029;-94
2022/11/29 07:02:58;;;;;;;5.47;4.20;;;;;;;16.74;36.85;102517.88;5013427;28;20040;-95
2022/11/29 07:05:31;;;;;;;7.32;4.50;;;;;;;16.69;36.89;102511.16;5014439;28;20037;-95
2022/11/29 07:08:05;;;;;;;4.88;3.58;;;;;;;16.69;36.79;102511.16;5015059;28;20033;-95
2022/11/29 07:10:32;;;;;;;5.75;3.83;;;;;;;16.69;36.77;102515.69;5001452;28;20059;-96
2022/11/29 07:12:58;;;;;;;5.97;3.67;;;;;;;16.68;36.82;102514.84;4997512;28;20033;-95
2022/11/29 07:15:24;;;;;;;5.13;3.92;;;;;;;16.69;36.81;102521.09;4996762;28;20041;-95
2022/11/29 07:18:27;;;;;;;5.88;3.90;;;;;;;16.73;36.78;102521.56;5017504;28;20037;-94
2022/11/29 07:21:05;;;;;;;5.18;3.70;;;;;;;16.73;36.80;102525.13;5028948;28;20037;-95
2022/11/29 07:23:35;;;;;;;5.13;3.80;;;;;;;16.72;36.76;102520.75;5025256;28;20056;-95
2022/11/29 07:26:25;;;;;;;5.25;3.83;;;;;;;16.74;36.82;102523.28;5025388;28;20029;-96
2022/11/29 07:29:15;;;;;;;4.68;3.47;;;;;;;16.74;36.99;102523.28;5029615;28;20034;-96
2022/11/29 07:31:43;;;;;;;5.38;3.78;;;;;;;16.70;36.96;102523.63;5032461;28;20406;-95
2022/11/29 07:34:20;;;;;;;5.30;3.47;;;;;;;16.71;36.57;102519.06;5030281;28;20036;-95
2022/11/29 07:36:56;;;;;;;5.88;4.05;;;;;;;16.68;36.83;102522.97;5011997;28;20060;-95
2022/11/29 07:39:30;;;;;;;5.72;4.10;;;;;;;16.71;36.83;102529.84;4989020;28;20398;-94
2022/11/29 07:42:16;;;;;;;4.72;3.50;;;;;;;16.70;36.86;102528.19;5011993;28;20488;-95
2022/11/29 07:44:45;;;;;;;5.72;3.53;;;;;;;16.71;36.84;102527.16;5029793;28;20083;-95
2022/11/29 07:47:11;;;;;;;4.45;3.63;;;;;;;16.70;36.95;102530.88;5009330;28;20471;-96
2022/11/29 07:49:36;;;;;;;5.05;3.70;;;;;;;16.71;36.85;102535.25;5012413;28;20581;-95
2022/11/29 07:52:02;;;;;;;5.40;3.88;;;;;;;16.67;36.88;102523.13;5009109;28;20049;-95
2022/11/29 07:54:28;;;;;;;5.28;3.83;;;;;;;16.71;37.03;102527.16;4995169;28;20476;-94
2022/11/29 07:56:53;;;;;;;5.97;3.95;;;;;;;16.67;36.88;102529.38;5001920;28;20082;-96
2022/11/29 07:59:19;;;;;;;5.32;3.97;;;;;;;16.68;36.89;102527.53;5012957;28;20029;-95
2022/11/29 08:01:45;;;;;;;3.85;2.90;;;;;;;16.66;36.84;102527.69;5019437;28;20116;-94
2022/11/29 08:04:10;;;;;;;4.55;3.63;;;;;;;16.68;36.87;102524.81;4997939;28;20040;-95
2022/11/29 08:06:36;;;;;;;5.28;3.58;;;;;;;16.70;36.94;102539.81;4996682;28;20136;-95
2022/11/29 08:09:02;;;;;;;4.85;3.60;;;;;;;16.68;36.95;102525.66;5010869;28;20037;-94
2022/11/29 08:11:28;;;;;;;5.32;3.47;;;;;;;16.67;36.84;102526.66;4995421;28;20453;-95
2022/11/29 08:13:57;;;;;;;5.20;3.63;;;;;;;16.67;36.93;102528.53;5010327;28;20168;-96
2022/11/29 08:16:23;;;;;;;4.53;3.63;;;;;;;16.71;36.96;102532.56;5011410;28;20120;-95
2022/11/29 08:18:49;;;;;;;5.65;3.63;;;;;;;16.68;36.91;102535.63;5031193;28;20025;-95
2022/11/29 08:21:17;;;;;;;4.40;3.20;;;;;;;16.69;36.85;102532.75;5033413;28;20033;-94
2022/11/29 08:23:44;;;;;;;4.82;3.67;;;;;;;16.68;37.02;102528.34;5014251;28;20395;-96
2022/11/29 08:26:10;;;;;;;5.30;3.85;;;;;;;16.70;36.92;102534.41;5016714;28;20028;-94
2022/11/29 08:28:36;;;;;;;5.90;3.83;;;;;;;16.66;36.88;102530.41;5013562;28;20112;-95
2022/11/29 08:31:06;;;;;;;4.93;3.53;;;;;;;16.69;36.99;102532.75;5013035;28;20507;-96
2022/11/29 08:33:37;;;;;;;4.90;3.20;;;;;;;16.66;36.99;102533.09;5014766;28;20030;-94
2022/11/29 08:36:16;;;;;;;4.97;3.50;;;;;;;16.67;37.12;102532.06;5013925;28;20042;-95
2022/11/29 08:38:42;;;;;;;4.65;3.42;;;;;;;16.66;36.98;102538.50;5010173;28;20381;-94
2022/11/29 08:41:09;;;;;;;4.50;3.50;;;;;;;16.68;36.94;102539.16;5011656;28;20028;-94
2022/11/29 08:43:34;;;;;;;4.05;2.80;;;;;;;16.67;37.05;102534.75;5012107;28;20116;-95
2022/11/29 08:46:00;;;;;;;5.18;3.47;;;;;;;16.68;36.97;102541.84;4997943;28;20068;-96
2022/11/29 08:48:26;;;;;;;4.10;3.13;;;;;;;16.67;37.00;102540.16;4988600;28;20025;-95
2022/11/29 08:50:52;;;;;;;4.30;3.10;;;;;;;16.68;37.02;102536.47;5007986;28;20033;-94
2022/11/29 08:56:02;;;;;;;4.85;3.63;;;;;;;16.69;37.10;102543.56;5017464;28;20036;-94
2022/11/29 08:58:28;;;;;;;3.80;3.10;;;;;;;16.67;37.14;102550.97;4995816;28;20022;-95
2022/11/29 09:00:53;;;;;;;4.72;3.47;;;;;;;16.69;36.96;102548.97;4997701;28;20030;-96
2022/11/29 09:06:21;;;;;;;4.55;3.47;;;;;;;16.69;37.12;102542.69;5019411;28;20044;-94
2022/11/29 09:08:47;;;;;;;3.80;3.10;;;;;;;16.65;36.98;102536.81;5011191;28;20431;-94
2022/11/29 09:11:18;;;;;;;4.25;3.03;;;;;;;16.68;37.16;102539.16;5030974;28;20419;-94
2022/11/29 09:13:45;;;;;;;5.20;3.60;;;;;;;16.66;37.14;102533.09;5006247;28;20028;-94
2022/11/29 09:16:13;;;;;;;5.20;3.28;;;;;;;16.68;37.06;102535.63;5000119;28;20025;-96
2022/11/29 09:18:41;;;;;;;4.13;3.22;;;;;;;16.67;37.12;102534.75;5012104;28;20041;-94
2022/11/29 09:21:08;;;;;;;5.65;3.30;;;;;;;16.67;37.27;102532.06;5014468;28;20032;-95
2022/11/29 09:23:37;;;;;;;3.70;3.13;;;;;;;16.66;37.15;102537.63;5030661;28;20048;-94
2022/11/29 09:26:03;;;;;;;4.78;3.45;;;;;;;16.66;37.10;102535.81;5019914;28;20025;-96
2022/11/29 09:28:29;;;;;;;3.97;2.97;;;;;;;16.66;37.12;102537.63;4995622;28;20076;-95
2022/11/29 09:30:55;;;;;;;4.75;3.83;;;;;;;16.64;37.22;102534.28;5018501;28;20022;-95
2022/11/29 09:33:21;;;;;;;4.45;3.38;;;;;;;16.67;37.19;102539.34;5007959;28;20523;-95
2022/11/29 09:35:46;;;;;;;4.57;2.92;;;;;;;16.65;37.20;102536.81;5032526;28;20124;-95
2022/11/29 09:38:13;;;;;;;4.20;3.15;;;;;;;16.66;37.24;102538.50;5028992;28;20029;-95
2022/11/29 09:40:46;;;;;;;5.13;3.20;;;;;;;16.70;37.20;102545.22;5014831;28;23038;-95
2022/11/29 09:43:32;;;;;;;4.05;3.17;;;;;;;16.66;37.22;102535.81;5031005;28;20025;-95
2022/11/29 09:46:26;;;;;;;3.38;2.80;;;;;;;16.66;37.19;102538.50;5030841;28;20021;-95
2022/11/29 09:49:01;;;;;;;4.70;3.10;;;;;;;16.68;37.12;102539.16;5025933;28;20045;-95
2022/11/29 09:52:01;;;;;;;4.13;3.20;;;;;;;16.69;37.20;102546.25;5030070;28;20546;-96
2022/11/29 09:54:30;;;;;;;3.67;2.80;;;;;;;16.69;37.34;102546.25;5031190;28;20035;-95
2022/11/29 09:56:55;;;;;;;3.88;3.08;;;;;;;16.67;37.14;102539.34;5016917;28;20030;-96
2022/11/29 09:59:27;;;;;;;4.43;3.15;;;;;;;16.67;37.20;102540.16;5031113;28;20466;-96
2022/11/29 10:02:03;;;;;;;3.97;2.97;;;;;;;16.66;37.37;102549.28;5013908;28;20037;-95
2022/11/29 10:04:30;;;;;;;3.80;2.95;;;;;;;16.66;37.36;102546.59;5005213;28;20033;-95
2022/11/29 10:07:05;;;;;;;5.18;3.42;;;;;;;16.63;37.38;102544.25;5008172;28;20079;-95
2022/11/29 10:09:36;;;;;;;4.13;3.00;;;;;;;16.68;37.40;102552.66;4996678;28;20029;-95
2022/11/29 10:12:22;;;;;;;3.72;3.13;;;;;;;16.67;37.32;102545.56;5012933;28;20498;-96
2022/11/29 10:14:51;;;;;;;3.75;2.80;;;;;;;16.69;37.22;102557.06;4995903;28;20028;-95
2022/11/29 10:17:38;;;;;;;3.15;2.85;;;;;;;16.66;37.34;102549.28;5029040;28;20362;-95
2022/11/29 10:20:21;;;;;;;3.88;3.10;;;;;;;16.68;37.39;102549.13;5012871;28;20523;-95
2022/11/29 10:23:13;;;;;;;3.97;2.97;;;;;;;16.67;37.31;102553.66;5016616;28;20030;-94
2022/11/29 10:26:06;;;;;;;3.42;3.00;;;;;;;16.68;37.36;102551.81;5026026;28;20049;-96
2022/11/29 10:28:34;;;;;;;3.47;2.92;;;;;;;16.66;37.36;102543.91;5029139;28;20034;-96
2022/11/29 10:31:17;;;;;;;4.20;2.90;;;;;;;16.64;37.61;102540.53;5016027;28;20045;-95
2022/11/29 10:33:43;;;;;;;3.67;2.95;;;;;;;16.64;37.33;102547.78;5004759;28;20030;-96
2022/11/29 10:36:39;;;;;;;6.15;3.17;;;;;;;16.63;37.56;102549.63;4998380;28;20048;-95
2022/11/29 10:39:06;;;;;;;3.75;3.10;;;;;;;16.67;37.22;102553.66;5008057;28;20065;-96
2022/11/29 10:41:32;;;;;;;4.30;3.00;;;;;;;16.65;37.38;102558.41;5012836;28;20036;-95
2022/11/29 10:43:58;;;;;;;4.55;2.70;;;;;;;16.65;37.38;102541.38;5013104;28;20490;-96
2022/11/29 10:46:34;;;;;;;4.05;3.03;;;;;;;16.64;37.46;102545.94;4998924;28;20131;-96
2022/11/29 10:49:19;;;;;;;3.78;2.65;;;;;;;16.67;37.40;102542.03;4993538;28;20033;-95
2022/11/29 10:51:48;;;;;;;3.25;2.55;;;;;;;16.68;37.62;102541.03;5017029;28;20036;-96
2022/11/29 10:54:39;;;;;;;3.97;2.83;;;;;;;16.67;37.49;102544.72;4997331;28;20053;-96
2022/11/29 10:57:18;;;;;;;3.55;2.80;;;;;;;16.62;37.60;102539.84;5007335;28;20041;-96
2022/11/29 11:00:09;;;;;;;3.95;2.92;;;;;;;16.68;37.44;102552.66;5003415;28;20112;-96
2022/11/29 11:02:34;;;;;;;3.97;2.90;;;;;;;16.64;37.45;102545.94;5021181;28;20033;-96
2022/11/29 11:05:00;;;;;;;4.28;3.22;;;;;;;16.67;37.54;102552.81;5003462;28;20033;-95
2022/11/29 11:07:26;;;;;;;3.97;2.90;;;;;;;16.65;37.49;102558.41;5014534;28;20021;-95
2022/11/29 11:09:54;;;;;;;3.60;2.60;;;;;;;16.64;37.50;102545.94;5035444;28;20075;-95
2022/11/29 11:12:22;;;;;;;3.08;2.50;;;;;;;16.64;37.48;102545.94;5011255;28;20037;-95
2022/11/29 11:14:50;;;;;;;3.78;2.83;;;;;;;16.62;37.54;102545.25;5003985;28;20091;-95
2022/11/29 11:17:31;;;;;;;3.90;2.60;;;;;;;16.66;37.67;102549.28;5001573;28;20037;-95
2022/11/29 11:20:08;;;;;;;3.22;2.60;;;;;;;16.67;37.47;102550.97;4996916;28;20057;-95
2022/11/29 11:22:34;;;;;;;3.28;2.60;;;;;;;16.64;37.44;102551.34;5006359;28;20029;-95
2022/11/29 11:25:02;;;;;;;3.25;2.58;;;;;;;16.67;37.41;102544.72;4998241;28;20222;-96
2022/11/29 11:27:33;;;;;;;3.88;2.85;;;;;;;16.68;37.63;102551.81;5016530;28;20033;-96
2022/11/29 11:29:59;;;;;;;3.10;2.42;;;;;;;16.68;37.66;102552.66;5010560;28;20033;-96
2022/11/29 11:32:24;;;;;;;4.00;2.67;;;;;;;16.67;37.52;102550.97;4991443;28;20029;-96
2022/11/29 11:34:54;;;;;;;3.92;2.80;;;;;;;16.68;37.58;102549.13;5011158;28;20544;-95
2022/11/29 11:37:22;;;;;;;3.60;2.72;;;;;;;16.67;37.69;102556.34;5016220;28;20252;-95
2022/11/29 11:39:49;;;;;;;3.28;2.72;;;;;;;16.68;37.42;102551.81;5018682;28;20028;-95
2022/11/29 11:42:36;;;;;;;2.92;2.60;;;;;;;16.66;37.54;102546.59;4995029;28;20084;-96
2022/11/29 11:45:11;;;;;;;2.88;2.47;;;;;;;16.68;37.56;102552.66;5003752;28;20028;-95
2022/11/29 11:47:45;;;;;;;2.30;2.10;;;;;;;16.58;37.42;102538.53;5021244;28;20025;-95
2022/11/29 11:50:26;;;;;;;3.10;2.70;;;;;;;16.64;37.35;102542.38;5014955;28;20446;-96
2022/11/29 11:52:53;;;;;;;2.95;2.63;;;;;;;16.63;37.73;102538.84;4995258;28;20129;-95
2022/11/29 11:55:24;;;;;;;3.47;2.60;;;;;;;16.68;37.49;102546.44;5011317;28;20502;-96
2022/11/29 11:58:15;;;;;;;2.75;2.40;;;;;;;16.67;37.62;102545.56;5034964;28;20059;-95
2022/11/29 12:00:51;;;;;;;3.38;2.50;;;;;;;16.65;37.45;102541.38;5030337;28;20076;-96
2022/11/29 12:03:46;;;;;;;3.45;2.35;;;;;;;16.68;37.64;102547.25;5016230;28;20491;-95
2022/11/29 12:06:27;;;;;;;3.17;2.53;;;;;;;16.67;37.64;102545.56;5021201;28;20032;-95
2022/11/29 12:09:03;;;;;;;3.35;2.42;;;;;;;16.68;37.61;102536.47;4993366;28;20036;-95
2022/11/29 12:11:53;;;;;;;4.05;2.80;;;;;;;16.67;37.64;102547.44;5025451;28;20036;-95